Time;durP1;ratioP1;P1;durP2;ratioP2;P2;SDS_P1;SDS_P2;PMS_P1;PMS_P2;Temp;Humidity;BMP_temperature;BMP_pressure;BME280_temperature;BME280_humidity;BME280_pressure;Samples;Min_cycle;Max_cycle;Signal;HPM_P1;HPM_P2
2024/04/20 00:01:46;;;;;;;4.33;1.90;;;6.80;99.90;;;;;;5456758;26;20503;-68
2024/04/20 00:04:16;;;;;;;3.10;1.80;;;6.80;99.90;;;;;;5457264;26;20495;-68
2024/04/20 00:06:47;;;;;;;5.20;2.07;;;6.70;99.90;;;;;;5457399;26;20409;-68
2024/04/20 00:09:17;;;;;;;3.03;1.80;;;6.70;99.90;;;;;;5457231;26;20406;-68
2024/04/20 00:11:48;;;;;;;2.20;1.87;;;6.70;99.90;;;;;;5456410;26;21024;-68
2024/04/20 00:14:18;;;;;;;3.93;2.13;;;6.70;99.90;;;;;;5424540;26;20485;-68
2024/04/20 00:16:52;;;;;;;3.30;2.47;;;6.70;99.90;;;;;;5456301;26;20440;-68
2024/04/20 00:19:22;;;;;;;2.93;1.90;;;6.70;99.90;;;;;;5457041;26;20435;-68
2024/04/20 00:21:52;;;;;;;3.17;2.37;;;6.70;99.90;;;;;;5456270;26;20512;-68
2024/04/20 00:24:23;;;;;;;3.00;1.90;;;6.60;99.90;;;;;;5456349;26;20525;-68
2024/04/20 00:26:52;;;;;;;4.13;2.13;;;6.60;99.90;;;;;;5456111;26;20558;-68
2024/04/20 00:29:22;;;;;;;4.90;2.23;;;6.60;99.90;;;;;;5424160;26;20456;-68
2024/04/20 00:31:55;;;;;;;3.23;1.80;;;6.60;99.90;;;;;;5456081;26;20445;-68
2024/04/20 00:34:25;;;;;;;2.17;1.67;;;6.50;99.90;;;;;;5457504;26;20816;-68
2024/04/20 00:36:55;;;;;;;3.83;1.63;;;6.50;99.90;;;;;;5456251;26;20786;-68
2024/04/20 00:39:25;;;;;;;2.70;1.60;;;6.50;99.90;;;;;;5457604;26;20430;-68
2024/04/20 00:41:56;;;;;;;2.50;1.70;;;6.40;99.90;;;;;;5424271;26;20541;-68
2024/04/20 00:44:26;;;;;;;4.40;1.53;;;6.40;99.90;;;;;;5457101;26;21030;-68
2024/04/20 00:47:01;;;;;;;2.50;1.77;;;6.40;99.90;;;;;;5455954;26;20435;-68
2024/04/20 00:49:33;;;;;;;4.93;1.47;;;6.40;99.90;;;;;;5456789;26;20400;-68
2024/04/20 00:52:06;;;;;;;2.57;1.77;;;6.40;99.90;;;;;;5456592;26;20445;-68
2024/04/20 00:54:39;;;;;;;2.43;1.77;;;6.40;99.90;;;;;;5456928;26;20428;-68
2024/04/20 00:57:10;;;;;;;4.57;1.83;;;6.30;99.90;;;;;;5456934;26;20429;-68
2024/04/20 00:59:40;;;;;;;2.70;1.73;;;6.30;99.90;;;;;;5456801;26;20452;-68
2024/04/20 01:02:13;;;;;;;2.97;1.40;;;6.30;99.90;;;;;;5456767;26;20438;-68
2024/04/20 01:04:43;;;;;;;3.00;1.90;;;6.30;99.90;;;;;;5456818;26;20416;-68
2024/04/20 01:07:14;;;;;;;2.60;1.30;;;6.30;99.90;;;;;;5455561;26;20485;-68
2024/04/20 01:09:44;;;;;;;2.83;1.67;;;6.30;99.90;;;;;;5456557;26;20452;-68
2024/04/20 01:12:14;;;;;;;2.90;1.97;;;6.20;99.90;;;;;;5456200;26;20456;-68
2024/04/20 01:14:44;;;;;;;2.40;1.57;;;6.20;99.90;;;;;;5455631;26;20824;-68
2024/04/20 01:17:16;;;;;;;2.40;1.40;;;6.20;99.90;;;;;;5455331;26;20834;-68
2024/04/20 01:19:46;;;;;;;2.30;1.50;;;6.20;99.90;;;;;;5456488;26;20871;-68
2024/04/20 01:22:17;;;;;;;2.63;1.80;;;6.10;99.90;;;;;;5423600;26;20494;-68
2024/04/20 01:24:48;;;;;;;2.87;1.80;;;6.10;99.90;;;;;;5455994;26;20508;-68
2024/04/20 01:27:20;;;;;;;2.87;2.10;;;6.10;99.90;;;;;;5423489;26;21036;-68
2024/04/20 01:29:51;;;;;;;3.20;1.73;;;6.00;99.90;;;;;;5456361;26;20994;-68
2024/04/20 01:32:20;;;;;;;2.70;1.60;;;6.00;99.90;;;;;;5455177;26;20445;-68
2024/04/20 01:34:50;;;;;;;4.47;1.70;;;6.00;99.90;;;;;;5455190;26;20494;-68
2024/04/20 01:37:20;;;;;;;2.57;1.43;;;6.00;99.90;;;;;;5455133;26;20440;-68
2024/04/20 01:39:50;;;;;;;2.60;1.63;;;5.90;99.90;;;;;;5455068;26;20556;-68
2024/04/20 01:42:23;;;;;;;2.20;1.60;;;5.90;99.90;;;;;;5423234;26;20571;-68
2024/04/20 01:44:53;;;;;;;4.53;1.60;;;5.90;99.90;;;;;;5423359;26;20547;-68
2024/04/20 01:47:28;;;;;;;3.40;2.00;;;5.80;99.90;;;;;;5454998;26;20581;-68
2024/04/20 01:49:58;;;;;;;2.97;1.53;;;5.80;99.90;;;;;;5423570;26;20835;-68
2024/04/20 01:52:28;;;;;;;4.47;2.53;;;5.70;99.90;;;;;;5459988;26;20840;-68
2024/04/20 01:54:58;;;;;;;3.30;1.83;;;5.70;99.90;;;;;;5456618;26;20452;-68
2024/04/20 01:57:31;;;;;;;2.80;1.67;;;5.70;99.90;;;;;;5456137;26;20552;-68
2024/04/20 02:00:01;;;;;;;3.00;1.80;;;5.70;99.90;;;;;;5456694;26;20828;-68
2024/04/20 02:02:33;;;;;;;2.30;1.70;;;5.60;99.90;;;;;;5456466;26;20403;-68
2024/04/20 02:05:04;;;;;;;3.47;1.90;;;5.60;99.90;;;;;;5456527;26;20814;-68
2024/04/20 02:07:34;;;;;;;2.60;1.60;;;5.60;99.90;;;;;;5456312;26;20969;-68
2024/04/20 02:10:05;;;;;;;3.07;1.70;;;5.60;99.90;;;;;;5454629;26;20794;-68
2024/04/20 02:12:38;;;;;;;3.40;1.80;;;5.50;99.90;;;;;;5454912;26;20430;-68
2024/04/20 02:15:08;;;;;;;4.03;1.77;;;5.50;99.90;;;;;;5456224;26;20945;-68
2024/04/20 02:17:38;;;;;;;2.57;1.73;;;5.50;99.90;;;;;;5456150;26;20396;-68
2024/04/20 02:20:09;;;;;;;3.10;1.87;;;5.50;99.90;;;;;;5454596;26;20446;-68
2024/04/20 02:22:39;;;;;;;2.97;1.77;;;5.50;99.90;;;;;;5455968;26;20394;-68
2024/04/20 02:25:09;;;;;;;2.50;1.70;;;5.40;99.90;;;;;;5454500;26;20863;-68
2024/04/20 02:27:42;;;;;;;4.87;2.47;;;5.40;99.90;;;;;;5454533;26;20442;-68
2024/04/20 02:30:12;;;;;;;2.10;1.60;;;5.40;99.90;;;;;;5454692;26;20514;-68
2024/04/20 02:32:42;;;;;;;2.77;1.70;;;5.40;99.90;;;;;;5455852;26;20737;-68
2024/04/20 02:35:12;;;;;;;3.50;1.70;;;5.30;99.90;;;;;;5454440;26;20450;-68
2024/04/20 02:37:42;;;;;;;2.70;1.67;;;5.30;99.90;;;;;;5454365;26;20494;-68
2024/04/20 02:40:14;;;;;;;3.00;1.60;;;5.30;99.90;;;;;;5454216;26;20835;-68
2024/04/20 02:42:46;;;;;;;3.40;1.47;;;5.30;99.90;;;;;;5455669;26;20398;-67
2024/04/20 02:45:18;;;;;;;2.10;1.60;;;5.20;99.90;;;;;;5455474;26;20605;-68
2024/04/20 02:47:48;;;;;;;2.40;1.53;;;5.20;99.90;;;;;;5455735;26;21021;-68
2024/04/20 02:50:20;;;;;;;4.13;1.80;;;5.10;99.90;;;;;;5422725;26;20498;-68
2024/04/20 02:52:50;;;;;;;2.73;1.70;;;5.10;99.90;;;;;;5454577;26;21060;-68
2024/04/20 02:55:20;;;;;;;2.70;1.60;;;5.10;99.90;;;;;;5454167;26;20434;-68
2024/04/20 02:57:52;;;;;;;2.97;1.73;;;5.00;99.90;;;;;;5454242;26;20435;-67
2024/04/20 03:00:23;;;;;;;4.30;1.53;;;5.00;99.90;;;;;;5455825;26;20783;-68
2024/04/20 03:02:53;;;;;;;2.90;2.07;;;5.00;99.90;;;;;;5455735;26;20915;-68
2024/04/20 03:05:23;;;;;;;3.10;1.73;;;5.00;99.90;;;;;;5454764;26;20446;-67
2024/04/20 03:07:53;;;;;;;2.53;1.70;;;5.00;99.90;;;;;;5422231;26;20457;-68
2024/04/20 03:10:23;;;;;;;3.10;2.10;;;4.90;99.90;;;;;;5453770;26;20513;-68
2024/04/20 03:12:56;;;;;;;2.57;1.93;;;4.90;99.90;;;;;;5454688;26;21080;-68
2024/04/20 03:15:26;;;;;;;2.17;1.50;;;4.90;99.90;;;;;;5455387;26;20398;-68
2024/04/20 03:17:56;;;;;;;2.93;1.97;;;4.80;99.90;;;;;;5453905;26;20453;-68
2024/04/20 03:20:26;;;;;;;4.50;1.73;;;4.80;99.90;;;;;;5453664;26;21002;-68
2024/04/20 03:22:56;;;;;;;3.30;1.57;;;4.80;99.90;;;;;;5453660;26;20969;-68
2024/04/20 03:25:27;;;;;;;3.40;1.50;;;4.80;99.90;;;;;;5453688;26;20551;-68
2024/04/20 03:27:59;;;;;;;2.63;1.70;;;4.80;99.90;;;;;;5455193;26;20394;-68
2024/04/20 03:30:29;;;;;;;2.53;1.80;;;4.70;99.90;;;;;;5454202;26;21026;-68
2024/04/20 03:32:59;;;;;;;2.77;2.10;;;4.70;99.90;;;;;;5453772;26;20834;-68
2024/04/20 03:35:29;;;;;;;2.47;1.80;;;4.70;99.90;;;;;;5453469;26;20441;-68
2024/04/20 03:37:59;;;;;;;4.40;1.90;;;4.70;99.90;;;;;;5453449;26;20490;-68
2024/04/20 03:40:29;;;;;;;3.43;2.73;;;4.70;99.90;;;;;;5453300;26;20909;-68
2024/04/20 03:42:59;;;;;;;3.83;2.30;;;4.60;99.90;;;;;;5453349;26;20548;-68
2024/04/20 03:45:29;;;;;;;3.30;2.43;;;4.60;99.90;;;;;;5454216;26;20895;-68
2024/04/20 03:47:59;;;;;;;3.60;2.00;;;4.60;99.90;;;;;;5453290;26;20434;-68
2024/04/20 03:50:29;;;;;;;2.43;1.60;;;4.60;99.90;;;;;;5453168;26;20457;-67
2024/04/20 03:52:59;;;;;;;4.20;2.03;;;4.60;99.90;;;;;;5453057;26;20437;-67
2024/04/20 03:55:29;;;;;;;3.73;1.93;;;4.60;99.90;;;;;;5453029;26;20446;-68
2024/04/20 03:58:02;;;;;;;3.30;2.10;;;4.60;99.90;;;;;;5453004;26;20498;-68
2024/04/20 04:00:32;;;;;;;3.00;2.10;;;4.50;99.90;;;;;;5454376;26;20484;-68
2024/04/20 04:03:02;;;;;;;3.20;2.20;;;4.50;99.90;;;;;;5453145;26;20969;-67
2024/04/20 04:05:32;;;;;;;4.73;2.40;;;4.50;99.90;;;;;;5453331;26;20434;-68
2024/04/20 04:08:02;;;;;;;3.53;2.63;;;4.50;99.90;;;;;;5452869;26;20552;-68
2024/04/20 04:10:32;;;;;;;5.20;2.40;;;4.50;99.90;;;;;;5452727;26;20498;-68
2024/04/20 04:13:05;;;;;;;6.10;2.07;;;4.50;99.90;;;;;;5452891;26;20970;-68
2024/04/20 04:15:36;;;;;;;2.80;1.77;;;4.50;99.90;;;;;;5454417;26;20782;-68
2024/04/20 04:18:07;;;;;;;4.30;2.23;;;4.40;99.90;;;;;;5454054;26;20398;-68
2024/04/20 04:20:36;;;;;;;4.13;2.03;;;4.40;99.90;;;;;;5453436;26;21113;-67
2024/04/20 04:23:07;;;;;;;2.70;2.00;;;4.40;99.90;;;;;;5452607;26;20437;-67
2024/04/20 04:25:37;;;;;;;3.57;2.10;;;4.40;99.90;;;;;;5453893;26;20431;-67
2024/04/20 04:28:10;;;;;;;2.57;2.03;;;4.40;99.90;;;;;;5452597;26;20446;-67
2024/04/20 04:30:40;;;;;;;3.78;2.10;;;4.40;99.90;;;;;;5453475;26;20346;-67
2024/04/20 04:33:10;;;;;;;5.63;2.20;;;4.40;99.90;;;;;;5452397;26;20279;-67
2024/04/20 04:35:40;;;;;;;4.50;2.50;;;4.30;99.90;;;;;;5453816;26;20457;-67
2024/04/20 04:38:09;;;;;;;2.57;2.10;;;4.30;99.90;;;;;;5456135;26;20489;-68
2024/04/20 04:40:39;;;;;;;2.90;2.03;;;4.30;99.90;;;;;;5455934;26;20449;-67
2024/04/20 04:43:12;;;;;;;3.10;2.10;;;4.30;99.90;;;;;;5456191;26;20783;-67
2024/04/20 04:45:42;;;;;;;3.03;2.23;;;4.30;99.90;;;;;;5456114;26;20809;-67
2024/04/20 04:48:15;;;;;;;3.30;2.33;;;4.30;99.90;;;;;;5456005;26;20490;-68
2024/04/20 04:50:49;;;;;;;3.00;2.10;;;4.30;99.90;;;;;;5457470;26;20989;-67
2024/04/20 04:53:19;;;;;;;5.63;2.70;;;4.30;99.90;;;;;;5456829;26;20438;-67
2024/04/20 04:55:49;;;;;;;3.80;2.10;;;4.30;99.90;;;;;;5456040;26;20434;-67
2024/04/20 04:58:22;;;;;;;3.30;2.20;;;4.30;99.90;;;;;;5423999;26;20450;-67
2024/04/20 05:00:52;;;;;;;3.37;2.20;;;4.30;99.90;;;;;;5456756;26;20457;-67
2024/04/20 05:03:22;;;;;;;3.10;2.50;;;4.30;99.90;;;;;;5457469;26;20779;-67
2024/04/20 05:05:52;;;;;;;3.23;2.37;;;4.30;99.90;;;;;;5424011;26;20787;-68
2024/04/20 05:08:26;;;;;;;3.43;2.83;;;4.30;99.90;;;;;;5457145;26;20434;-69
2024/04/20 05:10:56;;;;;;;4.17;2.00;;;4.30;99.90;;;;;;5424783;26;20513;-69
2024/04/20 05:13:28;;;;;;;2.87;2.33;;;4.30;99.90;;;;;;5455918;26;20498;-69
2024/04/20 05:15:58;;;;;;;3.33;3.03;;;4.40;99.90;;;;;;5457174;26;20398;-68
2024/04/20 05:18:29;;;;;;;3.23;2.37;;;4.40;99.90;;;;;;5455693;26;20556;-68
2024/04/20 05:20:59;;;;;;;3.20;2.40;;;4.40;99.90;;;;;;5456667;26;20836;-68
2024/04/20 05:23:29;;;;;;;3.37;2.00;;;4.40;99.90;;;;;;5455531;26;20434;-68
2024/04/20 05:25:59;;;;;;;2.73;2.40;;;4.50;99.90;;;;;;5455547;26;20438;-68
2024/04/20 05:28:33;;;;;;;2.80;2.10;;;4.50;99.90;;;;;;5455458;26;20441;-68
2024/04/20 05:31:03;;;;;;;4.13;2.17;;;4.60;99.90;;;;;;5456612;26;20865;-67
2024/04/20 05:33:33;;;;;;;4.30;2.77;;;4.60;99.90;;;;;;5455275;26;20501;-68
2024/04/20 05:36:06;;;;;;;4.10;2.50;;;4.60;99.90;;;;;;5423511;26;20449;-68
2024/04/20 05:38:36;;;;;;;2.40;1.80;;;4.70;99.90;;;;;;5462472;26;20403;-68
2024/04/20 05:41:06;;;;;;;3.80;2.10;;;4.70;99.90;;;;;;5456998;26;20458;-68
2024/04/20 05:43:39;;;;;;;2.50;1.97;;;4.80;99.90;;;;;;5457245;26;20434;-68
2024/04/20 05:46:09;;;;;;;3.47;2.10;;;4.90;99.90;;;;;;5456313;26;20406;-68
2024/04/20 05:48:39;;;;;;;3.67;2.27;;;4.90;99.90;;;;;;5454695;26;20441;-68
2024/04/20 05:51:09;;;;;;;3.70;2.20;;;5.00;99.90;;;;;;5455163;26;21021;-68
2024/04/20 05:53:39;;;;;;;2.80;1.90;;;5.00;99.90;;;;;;5455198;26;20486;-68
2024/04/20 05:56:09;;;;;;;3.57;1.73;;;5.10;99.90;;;;;;5455158;26;20439;-68
2024/04/20 05:58:41;;;;;;;2.90;2.03;;;5.20;99.90;;;;;;5455090;26;20497;-68
2024/04/20 06:01:12;;;;;;;3.57;2.03;;;5.30;99.90;;;;;;5456305;26;20556;-68
2024/04/20 06:03:42;;;;;;;4.23;2.07;;;5.50;99.90;;;;;;5456427;26;20405;-68
2024/04/20 06:06:12;;;;;;;2.20;1.50;;;5.70;99.90;;;;;;5455537;26;20950;-68
2024/04/20 06:08:42;;;;;;;4.13;2.30;;;5.80;99.90;;;;;;5455147;26;20449;-68
2024/04/20 06:11:12;;;;;;;3.97;2.13;;;6.00;99.90;;;;;;5422917;26;20468;-68
2024/04/20 06:13:45;;;;;;;2.40;2.17;;;6.20;99.90;;;;;;5455160;26;20493;-69
2024/04/20 06:16:15;;;;;;;3.33;1.90;;;6.40;99.90;;;;;;5456413;26;20935;-69
2024/04/20 06:18:45;;;;;;;2.87;2.20;;;6.50;99.90;;;;;;5455117;26;20446;-68
2024/04/20 06:21:15;;;;;;;2.87;2.27;;;6.60;99.90;;;;;;5454962;26;20499;-68
2024/04/20 06:23:45;;;;;;;3.13;2.17;;;6.60;99.90;;;;;;5422965;26;20497;-68
2024/04/20 06:26:15;;;;;;;3.10;2.33;;;6.80;99.90;;;;;;5454829;26;20441;-68
2024/04/20 06:28:47;;;;;;;3.43;2.30;;;6.90;99.90;;;;;;5454766;26;20586;-68
2024/04/20 06:31:17;;;;;;;3.27;2.10;;;7.10;99.90;;;;;;5456073;26;20836;-68
2024/04/20 06:33:47;;;;;;;2.97;2.10;;;7.20;99.90;;;;;;5454606;26;20493;-69
2024/04/20 06:36:18;;;;;;;3.17;2.60;;;7.30;99.90;;;;;;5454567;26;20493;-69
2024/04/20 06:38:48;;;;;;;3.03;2.07;;;7.50;99.90;;;;;;5454609;26;20572;-68
2024/04/20 06:41:17;;;;;;;3.67;2.50;;;7.60;99.90;;;;;;5454680;26;20494;-68
2024/04/20 06:43:52;;;;;;;3.77;2.63;;;7.80;99.90;;;;;;5454410;26;20856;-69
2024/04/20 06:46:22;;;;;;;3.10;1.97;;;8.00;99.90;;;;;;5456015;26;20423;-70
2024/04/20 06:48:52;;;;;;;3.17;1.90;;;8.20;99.90;;;;;;5422790;26;20457;-69
2024/04/20 06:51:22;;;;;;;2.30;1.87;;;8.30;99.90;;;;;;5454681;26;20555;-68
2024/04/20 06:53:52;;;;;;;5.23;2.30;;;8.40;99.90;;;;;;5454540;26;20434;-69
2024/04/20 06:56:23;;;;;;;3.53;2.00;;;8.50;99.90;;;;;;5454688;26;20434;-69
2024/04/20 06:58:56;;;;;;;3.77;2.10;;;8.60;99.90;;;;;;5455477;26;20412;-69
2024/04/20 07:01:26;;;;;;;2.50;2.17;;;8.70;99.90;;;;;;5455979;26;20449;-69
2024/04/20 07:03:56;;;;;;;2.60;1.97;;;8.70;99.90;;;;;;5454177;26;20441;-69
2024/04/20 07:06:26;;;;;;;3.73;2.60;;;8.70;99.90;;;;;;5422696;26;20794;-69
2024/04/20 07:08:56;;;;;;;3.67;1.70;;;8.60;99.90;;;;;;5454106;26;20793;-69
2024/04/20 07:11:26;;;;;;;2.73;1.90;;;8.60;99.90;;;;;;5454206;26;20462;-69
2024/04/20 07:13:58;;;;;;;3.30;2.50;;;8.70;99.90;;;;;;5454374;26;20536;-69
2024/04/20 07:16:28;;;;;;;3.27;2.20;;;8.80;99.90;;;;;;5455541;26;20394;-69
2024/04/20 07:18:58;;;;;;;2.60;2.07;;;8.80;99.90;;;;;;5454692;26;20490;-69
2024/04/20 07:21:28;;;;;;;2.37;2.10;;;8.80;99.90;;;;;;5455346;26;20989;-69
2024/04/20 07:24:01;;;;;;;2.80;1.97;;;8.70;99.90;;;;;;5455316;26;20390;-69
2024/04/20 07:26:31;;;;;;;3.70;2.50;;;8.70;99.90;;;;;;5454051;26;20437;-70
2024/04/20 07:29:04;;;;;;;4.60;2.63;;;8.60;99.90;;;;;;5454112;26;20969;-69
2024/04/20 07:31:34;;;;;;;3.40;3.10;;;8.60;99.90;;;;;;5455108;26;20516;-68
2024/04/20 07:34:04;;;;;;;2.37;1.77;;;8.50;99.90;;;;;;5455109;26;20394;-69
2024/04/20 07:36:34;;;;;;;3.27;2.67;;;8.50;99.90;;;;;;5453614;26;20490;-69
2024/04/20 07:39:04;;;;;;;3.23;2.60;;;8.40;99.90;;;;;;5453989;26;21047;-68
2024/04/20 07:41:34;;;;;;;3.90;2.33;;;8.40;99.90;;;;;;5453773;26;20453;-69
2024/04/20 07:44:07;;;;;;;4.10;2.40;;;8.40;99.90;;;;;;5454084;26;21037;-68
2024/04/20 07:46:37;;;;;;;3.40;2.27;;;8.40;99.90;;;;;;5454750;26;20918;-68
2024/04/20 07:49:07;;;;;;;2.77;2.20;;;8.40;99.90;;;;;;5454285;26;20441;-69
2024/04/20 07:51:37;;;;;;;2.90;2.30;;;8.40;99.90;;;;;;5454331;26;20564;-69
2024/04/20 07:54:07;;;;;;;4.73;2.37;;;8.40;99.90;;;;;;5454047;26;20441;-69
2024/04/20 07:56:37;;;;;;;3.20;2.30;;;8.40;99.90;;;;;;5454754;26;20490;-69
2024/04/20 07:59:09;;;;;;;2.87;2.30;;;8.40;99.90;;;;;;5454241;26;20446;-69
2024/04/20 08:01:39;;;;;;;3.00;1.77;;;8.40;99.90;;;;;;5422281;26;20563;-68
2024/04/20 08:04:10;;;;;;;3.27;2.40;;;8.40;99.90;;;;;;5454822;26;20441;-69
2024/04/20 08:06:40;;;;;;;2.70;2.23;;;8.50;99.90;;;;;;5455631;26;20772;-67
2024/04/20 08:09:10;;;;;;;2.93;2.37;;;8.50;99.90;;;;;;5453913;26;20489;-69
2024/04/20 08:11:44;;;;;;;3.30;2.13;;;8.50;99.90;;;;;;5457649;26;20461;-72
2024/04/20 08:14:17;;;;;;;3.40;2.33;;;8.50;99.90;;;;;;5425421;26;20495;-69
2024/04/20 08:16:47;;;;;;;3.23;2.30;;;8.60;99.90;;;;;;5458620;26;20390;-70
2024/04/20 08:19:16;;;;;;;3.30;2.80;;;8.60;99.90;;;;;;5457670;26;20497;-69
2024/04/20 08:21:47;;;;;;;2.83;2.40;;;8.60;99.90;;;;;;5457464;26;20436;-70
2024/04/20 08:24:17;;;;;;;3.90;2.57;;;8.70;99.90;;;;;;5457800;26;20489;-70
2024/04/20 08:26:46;;;;;;;3.00;2.30;;;8.70;99.90;;;;;;5457883;26;20441;-69
2024/04/20 08:29:19;;;;;;;3.07;2.40;;;8.70;99.90;;;;;;5425652;26;20465;-69
2024/04/20 08:31:49;;;;;;;4.50;2.63;;;8.70;99.90;;;;;;5458252;26;20390;-70
2024/04/20 08:34:19;;;;;;;4.10;3.47;;;8.80;99.90;;;;;;5457334;26;20549;-69
2024/04/20 08:36:49;;;;;;;3.97;2.43;;;8.80;99.90;;;;;;5457072;26;20441;-69
2024/04/20 08:39:19;;;;;;;3.00;2.70;;;8.90;99.90;;;;;;5457163;26;20490;-69
2024/04/20 08:42:05;;;;;;;3.43;2.70;;;8.90;99.90;;;;;;5457298;26;20438;-68
2024/04/20 08:44:38;;;;;;;3.33;2.73;;;9.00;99.90;;;;;;5458112;26;20442;-68
2024/04/20 08:47:12;;;;;;;5.50;2.97;;;9.10;99.90;;;;;;5425357;26;20891;-68
2024/04/20 08:49:46;;;;;;;4.20;3.40;;;9.10;99.90;;;;;;5457982;26;20521;-68
2024/04/20 08:52:17;;;;;;;6.37;2.47;;;9.20;99.90;;;;;;5458355;26;20480;-68
2024/04/20 08:54:47;;;;;;;3.83;2.60;;;9.20;99.90;;;;;;5456119;26;20479;-67
2024/04/20 08:57:18;;;;;;;5.10;3.23;;;9.30;99.90;;;;;;5456921;26;21009;-68
2024/04/20 08:59:51;;;;;;;3.47;3.00;;;9.30;99.90;;;;;;5456755;26;20453;-68
2024/04/20 09:02:26;;;;;;;3.23;2.43;;;9.40;99.90;;;;;;5456816;26;20442;-68
2024/04/20 09:05:00;;;;;;;4.70;3.57;;;9.50;99.90;;;;;;5455895;26;20472;-68
2024/04/20 09:07:30;;;;;;;4.20;2.53;;;9.60;99.90;;;;;;5423945;26;20970;-68
2024/04/20 09:10:02;;;;;;;3.30;2.30;;;9.60;99.90;;;;;;5455425;26;20453;-68
2024/04/20 09:12:32;;;;;;;3.50;2.33;;;9.70;99.90;;;;;;5456006;26;20504;-68
2024/04/20 09:15:08;;;;;;;3.30;2.80;;;9.70;99.90;;;;;;5455848;26;20854;-68
2024/04/20 09:17:38;;;;;;;4.30;3.00;;;9.70;99.90;;;;;;5456898;26;20405;-68
2024/04/20 09:20:10;;;;;;;4.27;2.50;;;9.70;99.90;;;;;;5455464;26;20449;-68
2024/04/20 09:22:40;;;;;;;3.73;2.80;;;9.70;99.90;;;;;;5462000;26;20465;-68
2024/04/20 09:25:10;;;;;;;3.80;2.20;;;9.70;99.90;;;;;;5456876;26;20442;-68
2024/04/20 09:27:40;;;;;;;2.80;2.30;;;9.70;99.90;;;;;;5424815;26;20513;-68
2024/04/20 09:30:13;;;;;;;5.53;2.83;;;9.80;99.90;;;;;;5456374;26;20461;-68
2024/04/20 09:32:45;;;;;;;3.20;2.50;;;9.80;99.90;;;;;;5457525;26;20549;-68
2024/04/20 09:35:18;;;;;;;3.30;1.80;;;9.80;99.90;;;;;;5457067;26;20445;-68
2024/04/20 09:37:49;;;;;;;3.50;2.20;;;9.80;99.90;;;;;;5423770;26;20509;-68
2024/04/20 09:40:19;;;;;;;5.33;2.27;;;9.90;99.90;;;;;;5455563;26;20498;-68
2024/04/20 09:42:49;;;;;;;3.30;2.50;;;9.90;99.90;;;;;;5456530;26;20487;-68
2024/04/20 09:45:24;;;;;;;2.80;2.27;;;9.90;99.90;;;;;;5456544;26;20431;-68
2024/04/20 09:47:58;;;;;;;3.53;2.00;;;9.90;99.90;;;;;;5456343;26;20547;-68
2024/04/20 09:50:29;;;;;;;5.30;2.20;;;10.00;99.90;;;;;;5456333;26;20523;-68
2024/04/20 09:53:07;;;;;;;3.40;2.30;;;10.00;99.90;;;;;;5456327;26;20427;-68
2024/04/20 09:55:42;;;;;;;3.90;2.20;;;10.10;99.90;;;;;;5423277;26;20460;-68
2024/04/20 09:58:16;;;;;;;2.80;2.40;;;10.10;99.90;;;;;;5423446;26;20501;-68
2024/04/20 10:00:50;;;;;;;3.10;2.37;;;10.10;99.90;;;;;;5423236;26;20509;-68
2024/04/20 10:03:22;;;;;;;3.27;2.33;;;10.20;99.90;;;;;;5456342;26;20395;-68
2024/04/20 10:05:54;;;;;;;3.00;2.10;;;10.20;99.90;;;;;;5455609;26;20429;-67
2024/04/20 10:08:24;;;;;;;2.83;2.03;;;10.20;99.90;;;;;;5423060;26;20529;-68
2024/04/20 10:10:55;;;;;;;3.83;3.07;;;10.30;99.90;;;;;;5454628;26;20802;-68
2024/04/20 10:13:27;;;;;;;2.77;1.97;;;10.30;99.90;;;;;;5455629;26;20990;-68
2024/04/20 10:16:01;;;;;;;3.40;1.97;;;10.40;99.90;;;;;;5455927;26;20495;-67
2024/04/20 10:18:31;;;;;;;4.30;2.37;;;10.50;99.90;;;;;;5456122;26;20884;-67
2024/04/20 10:21:01;;;;;;;2.33;1.90;;;10.50;99.90;;;;;;5455974;26;21057;-66
2024/04/20 10:23:33;;;;;;;3.03;1.70;;;10.50;99.90;;;;;;5454612;26;20496;-67
2024/04/20 10:26:03;;;;;;;3.40;2.30;;;10.60;99.90;;;;;;5422859;26;20522;-67
2024/04/20 10:28:35;;;;;;;2.83;2.23;;;10.60;99.90;;;;;;5454745;26;20951;-67
2024/04/20 10:31:08;;;;;;;2.00;1.50;;;10.60;99.90;;;;;;5454911;26;20445;-70
2024/04/20 10:33:41;;;;;;;2.60;2.23;;;10.70;99.90;;;;;;5454844;26;20398;-69
2024/04/20 10:36:12;;;;;;;4.23;1.97;;;10.70;99.90;;;;;;5422606;26;20502;-70
2024/04/20 10:38:43;;;;;;;2.60;2.00;;;10.70;99.90;;;;;;5455116;26;20489;-70
2024/04/20 10:41:15;;;;;;;3.30;1.70;;;10.70;99.90;;;;;;5422649;26;20505;-68
2024/04/20 10:43:46;;;;;;;2.10;1.50;;;10.70;99.90;;;;;;5456043;26;20402;-68
2024/04/20 10:46:22;;;;;;;2.13;1.40;;;10.80;99.90;;;;;;5455912;26;20394;-68
2024/04/20 10:48:58;;;;;;;1.90;1.20;;;10.80;99.90;;;;;;5455040;26;20441;-68
2024/04/20 10:51:29;;;;;;;1.97;1.30;;;10.80;99.90;;;;;;5455703;26;20441;-68
2024/04/20 10:54:02;;;;;;;2.20;1.47;;;10.90;99.70;;;;;;5422868;26;20512;-69
2024/04/20 10:56:35;;;;;;;2.37;1.60;;;10.90;99.60;;;;;;5455581;26;20400;-68
2024/04/20 10:59:08;;;;;;;3.60;1.53;;;10.90;99.40;;;;;;5455589;26;20833;-68
2024/04/20 11:01:42;;;;;;;3.00;1.77;;;10.90;99.50;;;;;;5455827;26;20783;-67
2024/04/20 11:04:19;;;;;;;1.90;1.20;;;10.90;99.20;;;;;;5455681;26;20402;-68
2024/04/20 11:06:54;;;;;;;2.17;1.50;;;10.90;99.10;;;;;;5455469;26;20441;-68
2024/04/20 11:09:25;;;;;;;2.30;1.60;;;10.90;98.90;;;;;;5455312;26;20445;-67
2024/04/20 11:12:03;;;;;;;2.10;1.27;;;10.90;99.00;;;;;;5454067;26;20505;-68
2024/04/20 11:14:34;;;;;;;1.87;1.47;;;10.90;99.10;;;;;;5455392;26;20393;-68
2024/04/20 11:17:08;;;;;;;2.20;1.27;;;11.00;99.20;;;;;;5421948;26;20779;-68
2024/04/20 11:19:41;;;;;;;2.17;1.40;;;11.10;99.20;;;;;;5422019;26;20822;-68
2024/04/20 11:22:12;;;;;;;1.90;1.43;;;11.10;99.30;;;;;;5455317;26;20748;-68
2024/04/20 11:24:45;;;;;;;2.20;1.40;;;11.20;99.20;;;;;;5422063;26;20501;-68
2024/04/20 11:27:16;;;;;;;2.50;1.50;;;11.20;98.90;;;;;;5455237;26;20728;-68
2024/04/20 11:29:47;;;;;;;2.57;2.23;;;11.20;98.70;;;;;;5453842;26;20449;-68
2024/04/20 11:32:25;;;;;;;2.30;1.57;;;11.20;98.60;;;;;;5455119;26;20391;-68
2024/04/20 11:34:56;;;;;;;4.23;1.40;;;11.10;98.40;;;;;;5455119;26;20430;-68
2024/04/20 11:37:27;;;;;;;1.70;1.10;;;11.10;98.20;;;;;;5457619;26;20395;-68
2024/04/20 11:40:05;;;;;;;2.63;1.10;;;11.10;98.00;;;;;;5456181;26;20993;-68
2024/04/20 11:42:36;;;;;;;2.43;1.53;;;11.10;97.80;;;;;;5456198;26;20456;-69
2024/04/20 11:45:07;;;;;;;2.57;1.30;;;11.10;97.90;;;;;;5456375;26;20966;-68
2024/04/20 11:47:42;;;;;;;1.90;1.40;;;11.10;97.90;;;;;;5458854;26;20786;-68
2024/04/20 11:50:17;;;;;;;1.60;1.20;;;11.10;97.40;;;;;;5458657;26;20480;-68
2024/04/20 11:55:41;;;;;;;2.57;1.50;;;11.10;97.30;;;;;;5457934;26;20401;-68
2024/04/20 11:58:12;;;;;;;1.97;1.30;;;11.20;97.40;;;;;;5425217;26;20457;-68
2024/04/20 12:00:43;;;;;;;2.50;1.53;;;11.20;97.30;;;;;;5457789;26;20453;-68
2024/04/20 12:03:18;;;;;;;2.17;1.70;;;11.30;97.40;;;;;;5457651;26;20394;-68
2024/04/20 12:05:49;;;;;;;2.13;1.40;;;11.30;97.40;;;;;;5457321;26;20493;-68
2024/04/20 12:08:19;;;;;;;2.27;1.30;;;11.30;97.30;;;;;;5456680;26;20437;-67
2024/04/20 12:10:49;;;;;;;2.90;1.30;;;11.30;97.20;;;;;;5456569;26;20465;-68
2024/04/20 12:13:20;;;;;;;2.03;1.40;;;11.40;97.00;;;;;;5424624;26;20461;-68
2024/04/20 12:15:50;;;;;;;2.40;1.40;;;11.30;97.00;;;;;;5456637;26;20433;-68
2024/04/20 12:18:23;;;;;;;1.57;1.10;;;11.30;97.00;;;;;;5456428;26;20445;-68
2024/04/20 12:20:53;;;;;;;2.10;1.23;;;11.40;97.00;;;;;;5457322;26;20491;-68
2024/04/20 12:23:23;;;;;;;2.57;1.73;;;11.40;97.20;;;;;;5424521;26;20450;-68
2024/04/20 12:25:53;;;;;;;3.40;2.67;;;11.40;97.20;;;;;;5457762;26;20398;-68
2024/04/20 12:28:23;;;;;;;2.57;2.10;;;11.50;97.10;;;;;;5456192;26;20453;-68
2024/04/20 12:30:53;;;;;;;2.40;1.30;;;11.50;97.10;;;;;;5456235;26;20449;-68
2024/04/20 12:33:26;;;;;;;2.60;1.60;;;11.50;97.20;;;;;;5456838;26;20554;-68
2024/04/20 12:35:56;;;;;;;2.60;1.63;;;11.60;97.30;;;;;;5424495;26;20460;-68
2024/04/20 12:38:26;;;;;;;2.00;1.50;;;11.60;97.20;;;;;;5456061;26;20493;-68
2024/04/20 12:40:57;;;;;;;1.90;1.20;;;11.60;97.20;;;;;;5457065;26;20501;-68
2024/04/20 12:43:27;;;;;;;2.57;1.40;;;11.60;97.30;;;;;;5457072;26;20500;-68
2024/04/20 12:45:57;;;;;;;3.67;1.90;;;11.60;97.50;;;;;;5456075;26;20490;-68
2024/04/20 12:48:30;;;;;;;3.50;1.40;;;11.70;97.70;;;;;;5456121;26;20437;-68
2024/04/20 12:51:01;;;;;;;2.40;1.70;;;11.80;97.90;;;;;;5456331;26;20441;-68
2024/04/20 12:53:31;;;;;;;1.70;1.07;;;11.90;97.70;;;;;;5457117;26;20469;-68
2024/04/20 12:56:01;;;;;;;2.23;1.90;;;11.90;97.70;;;;;;5457567;26;20414;-68
2024/04/20 12:58:31;;;;;;;2.70;1.37;;;12.00;97.80;;;;;;5455682;26;20453;-68
2024/04/20 13:01:01;;;;;;;2.43;1.27;;;12.00;97.80;;;;;;5455715;26;20458;-69
2024/04/20 13:03:34;;;;;;;3.83;1.27;;;12.00;97.60;;;;;;5455932;26;20441;-68
2024/04/20 13:06:05;;;;;;;1.97;1.20;;;12.00;97.50;;;;;;5456988;26;20455;-68
2024/04/20 13:08:36;;;;;;;2.27;1.50;;;12.00;97.50;;;;;;5455931;26;20433;-67
2024/04/20 13:11:06;;;;;;;1.80;1.20;;;12.00;97.40;;;;;;5423094;26;21026;-67
2024/04/20 13:13:36;;;;;;;2.70;1.60;;;12.00;97.50;;;;;;5456827;26;20739;-66
2024/04/20 13:16:07;;;;;;;2.00;1.20;;;12.10;98.00;;;;;;5460104;26;20442;-67
2024/04/20 13:18:39;;;;;;;3.93;2.67;;;12.10;97.70;;;;;;5460142;26;20776;-67